createdAt,value
2022-08-16T00:01:45.900Z,21.87
2022-08-16T00:06:48.345Z,21.78
2022-08-16T00:11:52.561Z,21.68
2022-08-16T00:17:06.471Z,21.42
2022-08-16T00:22:16.386Z,21.57
2022-08-16T00:27:18.239Z,21.48
2022-08-16T00:32:20.021Z,21.55
2022-08-16T00:37:57.807Z,21.47
2022-08-16T00:42:47.575Z,21.48
2022-08-16T00:47:56.721Z,21.36
2022-08-16T00:52:59.191Z,21.36
2022-08-16T00:58:01.047Z,21.23
2022-08-16T01:03:08.141Z,21.27
2022-08-16T01:08:36.157Z,21.24
2022-08-16T01:13:39.006Z,21.19
2022-08-16T01:18:48.617Z,21.18
2022-08-16T01:24:52.466Z,21.07
2022-08-16T01:29:59.965Z,20.99
2022-08-16T01:35:06.802Z,21.12
2022-08-16T01:40:09.137Z,21.12
2022-08-16T01:45:10.767Z,21.08
2022-08-16T01:50:42.508Z,21.07
2022-08-16T01:55:35.568Z,20.96
2022-08-16T02:00:38.753Z,20.94
2022-08-16T02:05:42.157Z,20.87
2022-08-16T02:10:48.402Z,20.84
2022-08-16T02:15:50.515Z,20.84
2022-08-16T02:20:54.326Z,20.74
2022-08-16T02:25:57.161Z,20.69
2022-08-16T02:31:06.518Z,20.67
2022-08-16T02:36:14.159Z,20.67
2022-08-16T02:41:23.469Z,20.57
2022-08-16T02:46:30.217Z,20.62
2022-08-16T02:51:38.296Z,20.60
2022-08-16T02:56:42.936Z,20.58
2022-08-16T03:01:50.225Z,20.51
2022-08-16T03:06:59.154Z,20.53
2022-08-16T03:12:16.684Z,20.38
2022-08-16T03:17:20.166Z,20.40
2022-08-16T03:22:29.600Z,20.34
2022-08-16T03:27:36.419Z,20.29
2022-08-16T03:32:40.356Z,20.28
2022-08-16T03:38:01.434Z,20.24
2022-08-16T03:43:20.667Z,20.28
2022-08-16T03:48:39.675Z,20.18
2022-08-16T03:53:57.851Z,20.20
2022-08-16T03:59:03.214Z,20.17
2022-08-16T04:04:11.763Z,20.22
2022-08-16T04:09:20.767Z,20.21
2022-08-16T04:14:32.707Z,20.18
2022-08-16T04:19:36.498Z,20.18
2022-08-16T04:24:38.362Z,20.17
2022-08-16T04:29:44.150Z,20.22
2022-08-16T04:34:49.184Z,20.22
2022-08-16T04:39:55.272Z,20.30
2022-08-16T04:45:02.056Z,20.37
2022-08-16T04:50:18.145Z,20.38
2022-08-16T04:55:53.079Z,20.46
2022-08-16T05:00:57.426Z,20.50
2022-08-16T05:06:05.249Z,20.42
2022-08-16T05:11:10.509Z,20.54
2022-08-16T05:16:21.480Z,20.65
2022-08-16T05:21:28.423Z,20.67
2022-08-16T05:26:40.714Z,20.72
2022-08-16T05:31:48.390Z,20.77
2022-08-16T05:36:57.402Z,20.90
2022-08-16T05:42:06.297Z,20.98
2022-08-16T05:47:09.157Z,21.08
2022-08-16T05:52:20.722Z,21.19
2022-08-16T05:57:24.365Z,21.29
2022-08-16T06:02:33.443Z,21.31
2022-08-16T06:07:36.634Z,21.44
2022-08-16T06:12:47.040Z,21.62
2022-08-16T06:17:56.661Z,21.78
2022-08-16T06:23:04.132Z,21.95
2022-08-16T06:28:35.716Z,22.07
2022-08-16T06:33:42.321Z,22.16
2022-08-16T06:38:55.558Z,22.34
2022-08-16T06:44:21.389Z,22.57
2022-08-16T06:49:29.867Z,22.69
2022-08-16T06:54:34.550Z,22.96
2022-08-16T06:59:52.698Z,23.04
2022-08-16T07:04:56.216Z,23.18
2022-08-16T07:09:59.446Z,23.33
2022-08-16T07:15:01.381Z,23.37
2022-08-16T07:20:34.650Z,23.70
2022-08-16T07:25:31.017Z,23.67
2022-08-16T07:30:45.313Z,23.73
2022-08-16T07:36:09.738Z,23.89
2022-08-16T07:41:15.886Z,24.12
2022-08-16T07:46:38.852Z,24.15
2022-08-16T07:51:54.282Z,24.41
2022-08-16T07:56:58.232Z,24.54
2022-08-16T08:02:00.600Z,24.67
2022-08-16T08:07:02.530Z,24.73
2022-08-16T08:12:32.663Z,24.72
2022-08-16T08:17:42.506Z,24.86
2022-08-16T08:22:48.033Z,24.83
2022-08-16T08:27:51.456Z,24.85
2022-08-16T08:33:01.051Z,24.81
2022-08-16T08:38:10.029Z,24.92
2022-08-16T08:43:18.107Z,24.90
2022-08-16T08:48:32.994Z,25.05
2022-08-16T08:53:39.719Z,25.00
2022-08-16T08:58:47.093Z,25.06
2022-08-16T09:04:06.171Z,25.07
2022-08-16T09:09:09.549Z,25.15
2022-08-16T09:14:24.705Z,25.10
2022-08-16T09:19:32.818Z,25.18
2022-08-16T09:24:52.551Z,25.26
2022-08-16T09:29:59.951Z,25.22
2022-08-16T09:35:02.845Z,25.29
2022-08-16T09:40:32.735Z,25.29
2022-08-16T09:45:30.058Z,25.37
2022-08-16T09:50:38.218Z,25.46
2022-08-16T09:55:44.486Z,25.48
2022-08-16T10:00:46.592Z,25.41
2022-08-16T10:05:49.144Z,25.57
2022-08-16T10:11:09.243Z,25.60
2022-08-16T10:21:16.772Z,25.58
2022-08-16T10:27:03.737Z,25.61
2022-08-16T10:31:45.339Z,25.59
2022-08-16T10:36:48.062Z,25.74
2022-08-16T10:41:55.920Z,25.75
2022-08-16T10:46:57.768Z,25.58
2022-08-16T10:52:02.954Z,25.68
2022-08-16T10:57:19.523Z,25.95
2022-08-16T11:02:59.636Z,26.13
2022-08-16T11:07:52.394Z,26.16
2022-08-16T11:12:55.382Z,26.04
2022-08-16T11:23:18.577Z,26.13
2022-08-16T11:33:52.575Z,26.10
2022-08-16T11:38:57.324Z,26.03
2022-08-16T11:44:01.042Z,26.04
2022-08-16T11:49:06.712Z,26.13
2022-08-16T11:54:20.918Z,26.13
2022-08-16T11:59:28.457Z,26.13
2022-08-16T12:04:31.504Z,26.24
2022-08-16T12:09:33.471Z,26.20
2022-08-16T12:14:41.679Z,26.19
2022-08-16T12:19:47.315Z,26.26
2022-08-16T12:24:51.891Z,26.45
2022-08-16T12:29:54.888Z,26.48
2022-08-16T12:35:01.737Z,26.45
2022-08-16T12:40:07.418Z,26.56
2022-08-16T12:45:28.247Z,26.48
2022-08-16T12:50:33.321Z,26.48
2022-08-16T12:55:41.975Z,26.65
2022-08-16T13:00:46.001Z,26.69
2022-08-16T13:05:55.523Z,26.63
2022-08-16T13:10:58.231Z,26.96
2022-08-16T13:16:05.757Z,27.14
2022-08-16T13:21:17.161Z,27.07
2022-08-16T13:26:18.838Z,27.14
2022-08-16T13:31:20.451Z,27.17
2022-08-16T13:36:45.710Z,27.08
2022-08-16T13:41:44.049Z,27.08
2022-08-16T13:46:56.820Z,27.26
2022-08-16T13:51:58.979Z,27.27
2022-08-16T13:57:01.794Z,27.26
2022-08-16T14:02:06.801Z,27.25
2022-08-16T14:07:11.484Z,27.40
2022-08-16T14:12:21.941Z,27.34
2022-08-16T14:17:24.546Z,27.35
2022-08-16T14:22:31.356Z,27.42
2022-08-16T14:27:35.905Z,27.46
2022-08-16T14:32:41.666Z,27.55
2022-08-16T14:37:52.699Z,27.42
2022-08-16T14:43:06.885Z,27.54
2022-08-16T14:48:09.418Z,27.59
2022-08-16T14:53:11.247Z,27.53
2022-08-16T14:58:19.517Z,27.61
2022-08-16T15:03:25.480Z,27.69
2022-08-16T15:08:36.478Z,27.54
2022-08-16T15:13:41.034Z,27.57
2022-08-16T15:18:42.612Z,27.66
2022-08-16T15:23:48.406Z,27.76
2022-08-16T15:28:51.208Z,27.70
2022-08-16T15:33:56.604Z,27.66
2022-08-16T15:39:06.781Z,27.65
2022-08-16T15:44:23.801Z,27.60
2022-08-16T15:49:37.231Z,27.52
2022-08-16T15:54:52.405Z,27.48
2022-08-16T15:59:56.381Z,27.62
2022-08-16T16:05:14.042Z,27.45
2022-08-16T16:10:15.667Z,27.43
2022-08-16T16:15:20.196Z,27.41
2022-08-16T16:20:27.249Z,27.42
2022-08-16T16:25:29.968Z,27.38
2022-08-16T16:30:38.292Z,27.39
2022-08-16T16:35:47.173Z,27.48
2022-08-16T16:41:02.107Z,27.43
2022-08-16T16:46:39.073Z,27.41
2022-08-16T16:51:28.019Z,27.37
2022-08-16T16:56:36.913Z,27.41
2022-08-16T17:01:59.920Z,27.34
2022-08-16T17:07:10.892Z,27.27
2022-08-16T17:12:22.678Z,27.22
2022-08-16T17:17:29.584Z,27.13
2022-08-16T17:22:32.982Z,27.08
2022-08-16T17:27:35.447Z,27.04
2022-08-16T17:32:46.651Z,26.96
2022-08-16T17:39:27.327Z,26.85
2022-08-16T17:43:13.976Z,26.76
2022-08-16T17:48:15.524Z,26.74
2022-08-16T17:53:17.369Z,26.67
2022-08-16T17:58:22.419Z,26.61
2022-08-16T18:04:02.962Z,26.57
2022-08-16T18:09:00.317Z,26.48
2022-08-16T18:14:05.746Z,26.55
2022-08-16T18:19:07.629Z,26.44
2022-08-16T18:24:11.057Z,26.46
2022-08-16T18:29:13.907Z,26.33
2022-08-16T18:34:15.454Z,26.30
2022-08-16T18:39:17.001Z,26.22
2022-08-16T18:44:24.988Z,26.16
2022-08-16T18:49:28.647Z,26.22
2022-08-16T18:54:32.256Z,26.15
2022-08-16T18:59:34.004Z,26.11
2022-08-16T19:04:55.075Z,26.10
2022-08-16T19:10:00.022Z,26.03
2022-08-16T19:15:01.693Z,26.00
2022-08-16T19:20:10.032Z,25.98
2022-08-16T19:25:12.587Z,25.89
2022-08-16T19:30:17.652Z,25.84
2022-08-16T19:35:19.287Z,25.78
2022-08-16T19:40:37.666Z,25.77
2022-08-16T19:45:45.335Z,25.70
2022-08-16T19:50:47.745Z,25.66
2022-08-16T19:55:49.399Z,25.65
2022-08-16T20:00:52.482Z,25.60
2022-08-16T20:05:59.253Z,25.57
2022-08-16T20:11:01.149Z,25.53
2022-08-16T20:16:02.832Z,25.50
2022-08-16T20:21:06.792Z,25.47
2022-08-16T20:26:08.396Z,25.46
2022-08-16T20:31:11.427Z,25.37
2022-08-16T20:36:16.109Z,25.39
2022-08-16T20:41:18.833Z,25.33
2022-08-16T20:46:20.512Z,25.32
2022-08-16T20:51:22.122Z,25.33
2022-08-16T20:56:23.787Z,25.28
2022-08-16T21:01:25.467Z,25.25
2022-08-16T21:06:54.085Z,25.16
2022-08-16T21:11:57.687Z,25.18
2022-08-16T21:17:01.384Z,25.18
2022-08-16T21:22:17.973Z,25.14
2022-08-16T21:27:19.721Z,25.13
2022-08-16T21:32:34.886Z,25.12
2022-08-16T21:37:37.573Z,25.11
2022-08-16T21:42:41.211Z,25.05
2022-08-16T21:47:43.537Z,25.02
2022-08-16T21:52:45.112Z,24.96
2022-08-16T21:57:46.675Z,24.93
2022-08-16T22:02:51.353Z,24.93
2022-08-16T22:07:55.406Z,24.89
2022-08-16T22:13:00.011Z,24.87
2022-08-16T22:18:01.681Z,24.85
2022-08-16T22:23:19.071Z,24.81
2022-08-16T22:28:22.023Z,24.75
2022-08-16T22:33:26.492Z,24.72
2022-08-16T22:38:53.886Z,24.71
2022-08-16T22:43:50.810Z,24.61
2022-08-16T22:48:52.396Z,24.61
2022-08-16T22:53:54.749Z,24.55
2022-08-16T22:58:56.496Z,24.53
2022-08-16T23:03:58.418Z,24.48
2022-08-16T23:08:59.977Z,24.41
2022-08-16T23:14:01.874Z,24.36
2022-08-16T23:19:11.517Z,24.32
2022-08-16T23:24:13.985Z,24.26
2022-08-16T23:29:25.601Z,24.25
2022-08-16T23:34:28.557Z,24.24
2022-08-16T23:39:30.180Z,24.18
2022-08-16T23:44:55.431Z,24.17
2022-08-16T23:50:00.356Z,24.14
2022-08-16T23:55:05.602Z,24.02
